<?xml version="1.0" encoding="UTF-8" standalone="no" ?>
<gpx xmlns="http://www.topografix.com/GPX/1/1" xmlns:xsi="http://www.w3.org/2001/XMLSchema-instance" xsi:schemaLocation="http://www.topografix.com/GPX/1/1 http://www.topografix.com/GPX/1/1/gpx.xsd" version="1.1" creator="VisuGPX - https://www.visugpx.com">
  <metadata>
    <name>Boucle passant par les étangs d'Estagnol et de Fontargente</name>
  </metadata>
  <wpt lat="42.65065" lon="1.70352">
    <ele>1701</ele>
    <name><![CDATA[Parking du Pla de Las Peyres]]></name>
  </wpt>
  <wpt lat="42.64064" lon="1.70733">
    <ele>1891</ele>
    <name><![CDATA[Bifurcation à gauche]]></name>
  </wpt>
  <wpt lat="42.64129" lon="1.71053">
    <ele>1944</ele>
    <name><![CDATA[Cabane de berger de Garsan]]></name>
  </wpt>
  <wpt lat="42.62964" lon="1.72584">
    <ele>2150</ele>
    <name><![CDATA[1er étang]]></name>
  </wpt>
  <wpt lat="42.62514" lon="1.72689">
    <ele>2177</ele>
    <name><![CDATA[Étang de l'Estagnol]]></name>
  </wpt>
  <wpt lat="42.62987" lon="1.72567">
    <ele>2145</ele>
    <name><![CDATA[Retour au 1er étang et bifurcation à gauche]]></name>
  </wpt>
  <wpt lat="42.62902" lon="1.712">
    <ele>2193</ele>
    <name><![CDATA[1°°er°° des ]]></name>
  </wpt>
  <wpt lat="42.62679" lon="1.70819">
    <ele>2196</ele>
    <name><![CDATA[Bifurcation vers le 2°°e°° des]]></name>
  </wpt>
  <wpt lat="42.62931" lon="1.70629">
    <ele>2199</ele>
    <name><![CDATA[Bifurcation vers le 3°°e°° des]]></name>
  </wpt>
  <wpt lat="42.63784" lon="1.69247">
    <ele>1911</ele>
    <name><![CDATA[Passerelle en fer]]></name>
  </wpt>
  <wpt lat="42.63743" lon="1.69116">
    <ele>1915</ele>
    <name><![CDATA[Passerelle]]></name>
  </wpt>
  <wpt lat="42.64945" lon="1.70287">
    <ele>1752</ele>
    <name><![CDATA[2ème passerelle]]></name>
  </wpt>
  <wpt lat="42.65065" lon="1.70351">
    <ele>1746</ele>
    <name><![CDATA[Parking du Pla de Las Peyres]]></name>
  </wpt>
  <trk>
    <name><![CDATA[Boucle passant par les étangs d'Estagnol et de Fontargente]]></name>
    <trkseg>
      <trkpt lat="42.65065" lon="1.70352">
        <ele>1701</ele>
        <time>2020-06-27T11:38:08+02:00</time>
      </trkpt>
      <trkpt lat="42.65043" lon="1.70356">
        <ele>1701</ele>
        <time>2021-08-16T14:49:14+02:00</time>
      </trkpt>
      <trkpt lat="42.65009" lon="1.70352">
        <ele>1700</ele>
        <time>2021-08-16T14:49:19+02:00</time>
      </trkpt>
      <trkpt lat="42.64984" lon="1.70356">
        <ele>1700</ele>
        <time>2021-08-16T14:49:24+02:00</time>
      </trkpt>
      <trkpt lat="42.64937" lon="1.70352">
        <ele>1701</ele>
        <time>2021-08-16T14:49:29+02:00</time>
      </trkpt>
      <trkpt lat="42.64921" lon="1.70345">
        <ele>1701</ele>
        <time>2021-08-16T14:49:34+02:00</time>
      </trkpt>
      <trkpt lat="42.64899" lon="1.70353">
        <ele>1748</ele>
        <time>2020-06-27T11:40:16+02:00</time>
      </trkpt>
      <trkpt lat="42.64877" lon="1.70361">
        <ele>1752</ele>
        <time>2020-06-27T11:40:16+02:00</time>
      </trkpt>
      <trkpt lat="42.64854" lon="1.70362">
        <ele>1756</ele>
        <time>2020-06-27T11:40:16+02:00</time>
      </trkpt>
      <trkpt lat="42.64831" lon="1.70364">
        <ele>1756</ele>
        <time>2020-06-27T11:40:16+02:00</time>
      </trkpt>
      <trkpt lat="42.64808" lon="1.70365">
        <ele>1756</ele>
        <time>2020-06-27T11:44:32+02:00</time>
      </trkpt>
      <trkpt lat="42.64785" lon="1.70364">
        <ele>1758</ele>
        <time>2020-06-27T11:44:32+02:00</time>
      </trkpt>
      <trkpt lat="42.64767" lon="1.70345">
        <ele>1758</ele>
        <time>2020-06-27T11:44:32+02:00</time>
      </trkpt>
      <trkpt lat="42.64745" lon="1.70337">
        <ele>1760</ele>
        <time>2020-06-27T11:44:32+02:00</time>
      </trkpt>
      <trkpt lat="42.64722" lon="1.70337">
        <ele>1759</ele>
        <time>2020-06-27T11:44:32+02:00</time>
      </trkpt>
      <trkpt lat="42.64699" lon="1.70332">
        <ele>1758</ele>
        <time>2020-06-27T11:46:40+02:00</time>
      </trkpt>
      <trkpt lat="42.64678" lon="1.70322">
        <ele>1767</ele>
        <time>2020-06-27T11:46:40+02:00</time>
      </trkpt>
      <trkpt lat="42.64667" lon="1.70296">
        <ele>1770</ele>
        <time>2020-06-27T11:46:40+02:00</time>
      </trkpt>
      <trkpt lat="42.64644" lon="1.70291">
        <ele>1768</ele>
        <time>2020-06-27T11:48:48+02:00</time>
      </trkpt>
      <trkpt lat="42.64621" lon="1.70287">
        <ele>1771</ele>
        <time>2020-06-27T11:48:48+02:00</time>
      </trkpt>
      <trkpt lat="42.64599" lon="1.70285">
        <ele>1779</ele>
        <time>2020-06-27T11:48:48+02:00</time>
      </trkpt>
      <trkpt lat="42.64576" lon="1.70276">
        <ele>1772</ele>
        <time>2020-06-27T11:48:48+02:00</time>
      </trkpt>
      <trkpt lat="42.64553" lon="1.70272">
        <ele>1766</ele>
        <time>2020-06-27T11:50:56+02:00</time>
      </trkpt>
      <trkpt lat="42.6453" lon="1.70266">
        <ele>1767</ele>
        <time>2020-06-27T11:50:56+02:00</time>
      </trkpt>
      <trkpt lat="42.64507" lon="1.70261">
        <ele>1765</ele>
        <time>2020-06-27T11:50:56+02:00</time>
      </trkpt>
      <trkpt lat="42.64485" lon="1.7027">
        <ele>1768</ele>
        <time>2020-06-27T11:50:56+02:00</time>
      </trkpt>
      <trkpt lat="42.64462" lon="1.70273">
        <ele>1773</ele>
        <time>2020-06-27T11:53:04+02:00</time>
      </trkpt>
      <trkpt lat="42.64439" lon="1.70271">
        <ele>1770</ele>
        <time>2020-06-27T11:53:04+02:00</time>
      </trkpt>
      <trkpt lat="42.64417" lon="1.70279">
        <ele>1769</ele>
        <time>2020-06-27T11:53:04+02:00</time>
      </trkpt>
      <trkpt lat="42.64395" lon="1.70272">
        <ele>1773</ele>
        <time>2020-06-27T11:53:04+02:00</time>
      </trkpt>
      <trkpt lat="42.64371" lon="1.70275">
        <ele>1776</ele>
        <time>2020-06-27T11:53:04+02:00</time>
      </trkpt>
      <trkpt lat="42.6435" lon="1.70286">
        <ele>1781</ele>
        <time>2020-06-27T11:55:12+02:00</time>
      </trkpt>
      <trkpt lat="42.6433" lon="1.70302">
        <ele>1784</ele>
        <time>2020-06-27T11:55:12+02:00</time>
      </trkpt>
      <trkpt lat="42.64309" lon="1.70318">
        <ele>1784</ele>
        <time>2020-06-27T11:55:12+02:00</time>
      </trkpt>
      <trkpt lat="42.64286" lon="1.70319">
        <ele>1788</ele>
        <time>2020-06-27T11:55:12+02:00</time>
      </trkpt>
      <trkpt lat="42.64263" lon="1.7032">
        <ele>1794</ele>
        <time>2020-06-27T11:57:20+02:00</time>
      </trkpt>
      <trkpt lat="42.64242" lon="1.70331">
        <ele>1796</ele>
        <time>2020-06-27T11:57:20+02:00</time>
      </trkpt>
      <trkpt lat="42.64222" lon="1.70346">
        <ele>1802</ele>
        <time>2020-06-27T11:59:28+02:00</time>
      </trkpt>
      <trkpt lat="42.64204" lon="1.70364">
        <ele>1803</ele>
        <time>2020-06-27T11:59:28+02:00</time>
      </trkpt>
      <trkpt lat="42.64195" lon="1.70392">
        <ele>1808</ele>
        <time>2020-06-27T11:59:28+02:00</time>
      </trkpt>
      <trkpt lat="42.64178" lon="1.70413">
        <ele>1814</ele>
        <time>2020-06-27T11:59:28+02:00</time>
      </trkpt>
      <trkpt lat="42.64167" lon="1.7044">
        <ele>1824</ele>
        <time>2020-06-27T12:03:44+02:00</time>
      </trkpt>
      <trkpt lat="42.64175" lon="1.70469">
        <ele>1837</ele>
        <time>2020-06-27T12:03:44+02:00</time>
      </trkpt>
      <trkpt lat="42.64159" lon="1.70492">
        <ele>1841</ele>
        <time>2020-06-27T12:03:44+02:00</time>
      </trkpt>
      <trkpt lat="42.64141" lon="1.70511">
        <ele>1844</ele>
        <time>2020-06-27T12:03:44+02:00</time>
      </trkpt>
      <trkpt lat="42.64128" lon="1.70536">
        <ele>1853</ele>
        <time>2020-06-27T12:03:44+02:00</time>
      </trkpt>
      <trkpt lat="42.64116" lon="1.70564">
        <ele>1858</ele>
        <time>2020-06-27T12:05:52+02:00</time>
      </trkpt>
      <trkpt lat="42.64112" lon="1.70594">
        <ele>1862</ele>
        <time>2020-06-27T12:05:52+02:00</time>
      </trkpt>
      <trkpt lat="42.64105" lon="1.70623">
        <ele>1877</ele>
        <time>2020-06-27T12:05:52+02:00</time>
      </trkpt>
      <trkpt lat="42.64094" lon="1.7065">
        <ele>1878</ele>
        <time>2020-06-27T12:08:00+02:00</time>
      </trkpt>
      <trkpt lat="42.64084" lon="1.70679">
        <ele>1881</ele>
        <time>2020-06-27T12:08:00+02:00</time>
      </trkpt>
      <trkpt lat="42.64078" lon="1.70708">
        <ele>1884</ele>
        <time>2020-06-27T12:08:00+02:00</time>
      </trkpt>
      <trkpt lat="42.64064" lon="1.70733">
        <ele>1891</ele>
        <time>2020-06-27T12:08:00+02:00</time>
      </trkpt>
      <trkpt lat="42.64074" lon="1.7076">
        <ele>1901</ele>
        <time>2020-06-27T12:16:32+02:00</time>
      </trkpt>
      <trkpt lat="42.64075" lon="1.70791">
        <ele>1900</ele>
        <time>2020-06-27T12:16:32+02:00</time>
      </trkpt>
      <trkpt lat="42.64078" lon="1.70822">
        <ele>1910</ele>
        <time>2020-06-27T12:16:32+02:00</time>
      </trkpt>
      <trkpt lat="42.64081" lon="1.70852">
        <ele>1915</ele>
        <time>2020-06-27T12:18:40+02:00</time>
      </trkpt>
      <trkpt lat="42.64093" lon="1.70879">
        <ele>1917</ele>
        <time>2020-06-27T12:18:40+02:00</time>
      </trkpt>
      <trkpt lat="42.64094" lon="1.70911">
        <ele>1919</ele>
        <time>2020-06-27T12:18:40+02:00</time>
      </trkpt>
      <trkpt lat="42.64092" lon="1.70942">
        <ele>1926</ele>
        <time>2020-06-27T12:20:48+02:00</time>
      </trkpt>
      <trkpt lat="42.64098" lon="1.70972">
        <ele>1935</ele>
        <time>2020-06-27T12:20:48+02:00</time>
      </trkpt>
      <trkpt lat="42.64108" lon="1.71">
        <ele>1941</ele>
        <time>2020-06-27T12:20:48+02:00</time>
      </trkpt>
      <trkpt lat="42.64115" lon="1.71029">
        <ele>1941</ele>
        <time>2020-06-27T12:20:48+02:00</time>
      </trkpt>
      <trkpt lat="42.64129" lon="1.71053">
        <ele>1944</ele>
        <time>2020-06-27T12:22:56+02:00</time>
      </trkpt>
      <trkpt lat="42.64135" lon="1.71195">
        <ele>1954</ele>
        <time>2020-06-27T12:35:44+02:00</time>
      </trkpt>
      <trkpt lat="42.64137" lon="1.71225">
        <ele>1961</ele>
        <time>2020-06-27T12:35:44+02:00</time>
      </trkpt>
      <trkpt lat="42.64145" lon="1.71255">
        <ele>1966</ele>
        <time>2020-06-27T12:35:44+02:00</time>
      </trkpt>
      <trkpt lat="42.64147" lon="1.71285">
        <ele>1967</ele>
        <time>2020-06-27T12:35:44+02:00</time>
      </trkpt>
      <trkpt lat="42.64145" lon="1.71316">
        <ele>1970</ele>
        <time>2020-06-27T12:37:52+02:00</time>
      </trkpt>
      <trkpt lat="42.64132" lon="1.71342">
        <ele>1966</ele>
        <time>2020-06-27T12:37:52+02:00</time>
      </trkpt>
      <trkpt lat="42.64117" lon="1.71366">
        <ele>1966</ele>
        <time>2020-06-27T12:37:52+02:00</time>
      </trkpt>
      <trkpt lat="42.64106" lon="1.71393">
        <ele>1966</ele>
        <time>2020-06-27T12:37:52+02:00</time>
      </trkpt>
      <trkpt lat="42.64098" lon="1.71422">
        <ele>1971</ele>
        <time>2020-06-27T12:40:00+02:00</time>
      </trkpt>
      <trkpt lat="42.64097" lon="1.71452">
        <ele>1971</ele>
        <time>2020-06-27T12:40:00+02:00</time>
      </trkpt>
      <trkpt lat="42.64091" lon="1.71482">
        <ele>1968</ele>
        <time>2020-06-27T12:40:00+02:00</time>
      </trkpt>
      <trkpt lat="42.6409" lon="1.71514">
        <ele>1971</ele>
        <time>2020-06-27T12:40:00+02:00</time>
      </trkpt>
      <trkpt lat="42.64081" lon="1.71543">
        <ele>1974</ele>
        <time>2020-06-27T12:40:00+02:00</time>
      </trkpt>
      <trkpt lat="42.64067" lon="1.71566">
        <ele>1973</ele>
        <time>2020-06-27T12:42:08+02:00</time>
      </trkpt>
      <trkpt lat="42.64056" lon="1.71594">
        <ele>1977</ele>
        <time>2020-06-27T12:42:08+02:00</time>
      </trkpt>
      <trkpt lat="42.64039" lon="1.71616">
        <ele>1979</ele>
        <time>2020-06-27T12:42:08+02:00</time>
      </trkpt>
      <trkpt lat="42.64024" lon="1.7164">
        <ele>1975</ele>
        <time>2020-06-27T12:44:16+02:00</time>
      </trkpt>
      <trkpt lat="42.64006" lon="1.71658">
        <ele>1976</ele>
        <time>2020-06-27T12:44:16+02:00</time>
      </trkpt>
      <trkpt lat="42.63987" lon="1.71676">
        <ele>1974</ele>
        <time>2020-06-27T12:44:16+02:00</time>
      </trkpt>
      <trkpt lat="42.63973" lon="1.71701">
        <ele>1975</ele>
        <time>2020-06-27T12:44:16+02:00</time>
      </trkpt>
      <trkpt lat="42.63961" lon="1.71728">
        <ele>1975</ele>
        <time>2020-06-27T12:46:24+02:00</time>
      </trkpt>
      <trkpt lat="42.63945" lon="1.7175">
        <ele>1980</ele>
        <time>2020-06-27T12:46:24+02:00</time>
      </trkpt>
      <trkpt lat="42.63928" lon="1.7177">
        <ele>1978</ele>
        <time>2020-06-27T12:46:24+02:00</time>
      </trkpt>
      <trkpt lat="42.63919" lon="1.71799">
        <ele>1982</ele>
        <time>2020-06-27T12:46:24+02:00</time>
      </trkpt>
      <trkpt lat="42.63908" lon="1.71827">
        <ele>1988</ele>
        <time>2020-06-27T12:46:24+02:00</time>
      </trkpt>
      <trkpt lat="42.63893" lon="1.71849">
        <ele>1987</ele>
        <time>2020-06-27T12:52:48+02:00</time>
      </trkpt>
      <trkpt lat="42.63875" lon="1.7187">
        <ele>1988</ele>
        <time>2020-06-27T12:54:56+02:00</time>
      </trkpt>
      <trkpt lat="42.63854" lon="1.71881">
        <ele>1986</ele>
        <time>2020-06-27T12:57:04+02:00</time>
      </trkpt>
      <trkpt lat="42.63831" lon="1.71886">
        <ele>1979</ele>
        <time>2020-06-27T12:57:04+02:00</time>
      </trkpt>
      <trkpt lat="42.63808" lon="1.71896">
        <ele>1980</ele>
        <time>2020-06-27T12:57:04+02:00</time>
      </trkpt>
      <trkpt lat="42.63788" lon="1.7191">
        <ele>1981</ele>
        <time>2020-06-27T12:57:04+02:00</time>
      </trkpt>
      <trkpt lat="42.63765" lon="1.71918">
        <ele>1980</ele>
        <time>2020-06-27T12:57:04+02:00</time>
      </trkpt>
      <trkpt lat="42.63743" lon="1.71923">
        <ele>1989</ele>
        <time>2020-06-27T12:59:12+02:00</time>
      </trkpt>
      <trkpt lat="42.63724" lon="1.71939">
        <ele>1997</ele>
        <time>2020-06-27T12:59:12+02:00</time>
      </trkpt>
      <trkpt lat="42.63707" lon="1.71959">
        <ele>1996</ele>
        <time>2020-06-27T12:59:12+02:00</time>
      </trkpt>
      <trkpt lat="42.63692" lon="1.71983">
        <ele>1998</ele>
        <time>2020-06-27T13:01:20+02:00</time>
      </trkpt>
      <trkpt lat="42.63669" lon="1.7199">
        <ele>1997</ele>
        <time>2020-06-27T13:01:20+02:00</time>
      </trkpt>
      <trkpt lat="42.6365" lon="1.72008">
        <ele>1997</ele>
        <time>2020-06-27T13:01:20+02:00</time>
      </trkpt>
      <trkpt lat="42.63635" lon="1.72031">
        <ele>2003</ele>
        <time>2020-06-27T13:01:20+02:00</time>
      </trkpt>
      <trkpt lat="42.63619" lon="1.72053">
        <ele>2005</ele>
        <time>2020-06-27T13:01:20+02:00</time>
      </trkpt>
      <trkpt lat="42.6361" lon="1.72082">
        <ele>2015</ele>
        <time>2020-06-27T13:03:28+02:00</time>
      </trkpt>
      <trkpt lat="42.63597" lon="1.72107">
        <ele>2017</ele>
        <time>2020-06-27T13:03:28+02:00</time>
      </trkpt>
      <trkpt lat="42.6358" lon="1.7213">
        <ele>2015</ele>
        <time>2020-06-27T13:05:36+02:00</time>
      </trkpt>
      <trkpt lat="42.63564" lon="1.7215">
        <ele>2023</ele>
        <time>2020-06-27T13:05:36+02:00</time>
      </trkpt>
      <trkpt lat="42.63547" lon="1.72173">
        <ele>2026</ele>
        <time>2020-06-27T13:05:36+02:00</time>
      </trkpt>
      <trkpt lat="42.6353" lon="1.72194">
        <ele>2031</ele>
        <time>2020-06-27T13:07:44+02:00</time>
      </trkpt>
      <trkpt lat="42.63519" lon="1.72222">
        <ele>2039</ele>
        <time>2020-06-27T13:07:44+02:00</time>
      </trkpt>
      <trkpt lat="42.63503" lon="1.72245">
        <ele>2043</ele>
        <time>2020-06-27T13:07:44+02:00</time>
      </trkpt>
      <trkpt lat="42.63487" lon="1.72268">
        <ele>2047</ele>
        <time>2020-06-27T13:09:52+02:00</time>
      </trkpt>
      <trkpt lat="42.63474" lon="1.72294">
        <ele>2046</ele>
        <time>2020-06-27T13:09:52+02:00</time>
      </trkpt>
      <trkpt lat="42.63458" lon="1.72316">
        <ele>2054</ele>
        <time>2020-06-27T13:09:52+02:00</time>
      </trkpt>
      <trkpt lat="42.63438" lon="1.72332">
        <ele>2052</ele>
        <time>2020-06-27T13:09:52+02:00</time>
      </trkpt>
      <trkpt lat="42.63424" lon="1.72357">
        <ele>2055</ele>
        <time>2020-06-27T13:09:52+02:00</time>
      </trkpt>
      <trkpt lat="42.63403" lon="1.72371">
        <ele>2054</ele>
        <time>2020-06-27T13:12:00+02:00</time>
      </trkpt>
      <trkpt lat="42.63381" lon="1.72373">
        <ele>2059</ele>
        <time>2020-06-27T13:16:16+02:00</time>
      </trkpt>
      <trkpt lat="42.63358" lon="1.72377">
        <ele>2059</ele>
        <time>2020-06-27T13:18:24+02:00</time>
      </trkpt>
      <trkpt lat="42.63335" lon="1.72381">
        <ele>2057</ele>
        <time>2020-06-27T13:20:32+02:00</time>
      </trkpt>
      <trkpt lat="42.63312" lon="1.72385">
        <ele>2066</ele>
        <time>2020-06-27T13:20:32+02:00</time>
      </trkpt>
      <trkpt lat="42.6329" lon="1.7239">
        <ele>2067</ele>
        <time>2020-06-27T13:20:32+02:00</time>
      </trkpt>
      <trkpt lat="42.63278" lon="1.72418">
        <ele>2078</ele>
        <time>2020-06-27T13:20:32+02:00</time>
      </trkpt>
      <trkpt lat="42.63256" lon="1.72423">
        <ele>2079</ele>
        <time>2020-06-27T13:22:40+02:00</time>
      </trkpt>
      <trkpt lat="42.63242" lon="1.72447">
        <ele>2090</ele>
        <time>2020-06-27T13:22:40+02:00</time>
      </trkpt>
      <trkpt lat="42.63227" lon="1.72471">
        <ele>2108</ele>
        <time>2020-06-27T13:26:56+02:00</time>
      </trkpt>
      <trkpt lat="42.63205" lon="1.72478">
        <ele>2105</ele>
        <time>2020-06-27T13:26:56+02:00</time>
      </trkpt>
      <trkpt lat="42.63183" lon="1.72488">
        <ele>2115</ele>
        <time>2020-06-27T13:26:56+02:00</time>
      </trkpt>
      <trkpt lat="42.63166" lon="1.72508">
        <ele>2122</ele>
        <time>2020-06-27T13:26:56+02:00</time>
      </trkpt>
      <trkpt lat="42.63145" lon="1.72521">
        <ele>2123</ele>
        <time>2020-06-27T13:29:04+02:00</time>
      </trkpt>
      <trkpt lat="42.63128" lon="1.72542">
        <ele>2125</ele>
        <time>2020-06-27T13:29:04+02:00</time>
      </trkpt>
      <trkpt lat="42.63112" lon="1.72564">
        <ele>2131</ele>
        <time>2020-06-27T13:29:04+02:00</time>
      </trkpt>
      <trkpt lat="42.63092" lon="1.72552">
        <ele>2140</ele>
        <time>2020-06-27T13:29:04+02:00</time>
      </trkpt>
      <trkpt lat="42.63069" lon="1.72555">
        <ele>2142</ele>
        <time>2020-06-27T13:29:04+02:00</time>
      </trkpt>
      <trkpt lat="42.63049" lon="1.72569">
        <ele>2139</ele>
        <time>2020-06-27T13:31:12+02:00</time>
      </trkpt>
      <trkpt lat="42.63029" lon="1.72583">
        <ele>2142</ele>
        <time>2020-06-27T13:31:12+02:00</time>
      </trkpt>
      <trkpt lat="42.63009" lon="1.726">
        <ele>2145</ele>
        <time>2020-06-27T13:31:12+02:00</time>
      </trkpt>
      <trkpt lat="42.62986" lon="1.72593">
        <ele>2146</ele>
        <time>2020-06-27T13:31:12+02:00</time>
      </trkpt>
      <trkpt lat="42.62964" lon="1.72584">
        <ele>2150</ele>
        <time>2020-06-27T13:33:20+02:00</time>
      </trkpt>
      <trkpt lat="42.62942" lon="1.72572">
        <ele>2149</ele>
        <time>2020-06-27T13:41:52+02:00</time>
      </trkpt>
      <trkpt lat="42.6292" lon="1.72577">
        <ele>2152</ele>
        <time>2020-06-27T13:44:00+02:00</time>
      </trkpt>
      <trkpt lat="42.62899" lon="1.72591">
        <ele>2155</ele>
        <time>2020-06-27T13:44:00+02:00</time>
      </trkpt>
      <trkpt lat="42.6288" lon="1.72607">
        <ele>2149</ele>
        <time>2020-06-27T13:44:00+02:00</time>
      </trkpt>
      <trkpt lat="42.62858" lon="1.72615">
        <ele>2145</ele>
        <time>2020-06-27T13:44:00+02:00</time>
      </trkpt>
      <trkpt lat="42.62842" lon="1.72638">
        <ele>2148</ele>
        <time>2020-06-27T13:44:00+02:00</time>
      </trkpt>
      <trkpt lat="42.62825" lon="1.72658">
        <ele>2145</ele>
        <time>2020-06-27T13:46:08+02:00</time>
      </trkpt>
      <trkpt lat="42.62809" lon="1.7268">
        <ele>2154</ele>
        <time>2020-06-27T13:46:08+02:00</time>
      </trkpt>
      <trkpt lat="42.62786" lon="1.72682">
        <ele>2156</ele>
        <time>2020-06-27T13:46:08+02:00</time>
      </trkpt>
      <trkpt lat="42.62763" lon="1.72688">
        <ele>2167</ele>
        <time>2020-06-27T13:48:16+02:00</time>
      </trkpt>
      <trkpt lat="42.6274" lon="1.7269">
        <ele>2166</ele>
        <time>2020-06-27T13:48:16+02:00</time>
      </trkpt>
      <trkpt lat="42.62723" lon="1.72669">
        <ele>2167</ele>
        <time>2020-06-27T13:50:24+02:00</time>
      </trkpt>
      <trkpt lat="42.62703" lon="1.72656">
        <ele>2165</ele>
        <time>2020-06-27T13:50:24+02:00</time>
      </trkpt>
      <trkpt lat="42.62681" lon="1.72643">
        <ele>2164</ele>
        <time>2020-06-27T13:50:24+02:00</time>
      </trkpt>
      <trkpt lat="42.62661" lon="1.72628">
        <ele>2163</ele>
        <time>2020-06-27T13:50:24+02:00</time>
      </trkpt>
      <trkpt lat="42.62639" lon="1.72619">
        <ele>2164</ele>
        <time>2020-06-27T13:50:24+02:00</time>
      </trkpt>
      <trkpt lat="42.62616" lon="1.72624">
        <ele>2174</ele>
        <time>2020-06-27T13:52:32+02:00</time>
      </trkpt>
      <trkpt lat="42.62595" lon="1.72613">
        <ele>2174</ele>
        <time>2020-06-27T13:52:32+02:00</time>
      </trkpt>
      <trkpt lat="42.62575" lon="1.72599">
        <ele>2168</ele>
        <time>2020-06-27T13:52:32+02:00</time>
      </trkpt>
      <trkpt lat="42.62555" lon="1.72581">
        <ele>2162</ele>
        <time>2020-06-27T13:54:40+02:00</time>
      </trkpt>
      <trkpt lat="42.62533" lon="1.72585">
        <ele>2163</ele>
        <time>2020-06-27T13:54:40+02:00</time>
      </trkpt>
      <trkpt lat="42.62509" lon="1.72586">
        <ele>2161</ele>
        <time>2020-06-27T13:54:40+02:00</time>
      </trkpt>
      <trkpt lat="42.62496" lon="1.72612">
        <ele>2171</ele>
        <time>2020-06-27T13:56:48+02:00</time>
      </trkpt>
      <trkpt lat="42.62494" lon="1.72643">
        <ele>2170</ele>
        <time>2020-06-27T13:58:56+02:00</time>
      </trkpt>
      <trkpt lat="42.62472" lon="1.72636">
        <ele>2177</ele>
        <time>2020-06-27T14:01:04+02:00</time>
      </trkpt>
      <trkpt lat="42.62482" lon="1.72663">
        <ele>2175</ele>
        <time>2020-06-27T14:05:20+02:00</time>
      </trkpt>
      <trkpt lat="42.625" lon="1.72682">
        <ele>2174</ele>
        <time>2020-06-27T14:05:20+02:00</time>
      </trkpt>
      <trkpt lat="42.62523" lon="1.7268">
        <ele>2173</ele>
        <time>2020-06-27T14:07:28+02:00</time>
      </trkpt>
      <trkpt lat="42.62536" lon="1.7265">
        <ele>2190</ele>
        <time>2020-06-27T14:22:24+02:00</time>
      </trkpt>
      <trkpt lat="42.6253" lon="1.72685">
        <ele>2150</ele>
        <time>2020-06-27T14:22:24+02:00</time>
      </trkpt>
      <trkpt lat="42.62553" lon="1.72695">
        <ele>2182</ele>
        <time>2020-06-27T14:37:20+02:00</time>
      </trkpt>
      <trkpt lat="42.62534" lon="1.72675">
        <ele>2205</ele>
        <time>2020-06-27T14:37:20+02:00</time>
      </trkpt>
      <trkpt lat="42.62514" lon="1.72689">
        <ele>2177</ele>
        <time>2020-06-27T14:41:36+02:00</time>
      </trkpt>
      <trkpt lat="42.62493" lon="1.72674">
        <ele>2177</ele>
        <time>2020-06-27T14:41:36+02:00</time>
      </trkpt>
      <trkpt lat="42.62491" lon="1.72643">
        <ele>2178</ele>
        <time>2020-06-27T14:41:36+02:00</time>
      </trkpt>
      <trkpt lat="42.62493" lon="1.72611">
        <ele>2178</ele>
        <time>2020-06-27T14:43:44+02:00</time>
      </trkpt>
      <trkpt lat="42.62488" lon="1.7258">
        <ele>2175</ele>
        <time>2020-06-27T14:43:44+02:00</time>
      </trkpt>
      <trkpt lat="42.62509" lon="1.72568">
        <ele>2180</ele>
        <time>2020-06-27T14:43:44+02:00</time>
      </trkpt>
      <trkpt lat="42.62529" lon="1.72582">
        <ele>2177</ele>
        <time>2020-06-27T14:45:52+02:00</time>
      </trkpt>
      <trkpt lat="42.6255" lon="1.72594">
        <ele>2179</ele>
        <time>2020-06-27T14:45:52+02:00</time>
      </trkpt>
      <trkpt lat="42.62572" lon="1.72607">
        <ele>2176</ele>
        <time>2020-06-27T14:45:52+02:00</time>
      </trkpt>
      <trkpt lat="42.62592" lon="1.72622">
        <ele>2172</ele>
        <time>2020-06-27T14:45:52+02:00</time>
      </trkpt>
      <trkpt lat="42.62614" lon="1.72629">
        <ele>2176</ele>
        <time>2020-06-27T14:45:52+02:00</time>
      </trkpt>
      <trkpt lat="42.62637" lon="1.72625">
        <ele>2174</ele>
        <time>2020-06-27T14:48:00+02:00</time>
      </trkpt>
      <trkpt lat="42.62657" lon="1.7264">
        <ele>2176</ele>
        <time>2020-06-27T14:48:00+02:00</time>
      </trkpt>
      <trkpt lat="42.62677" lon="1.72654">
        <ele>2175</ele>
        <time>2020-06-27T14:48:00+02:00</time>
      </trkpt>
      <trkpt lat="42.627" lon="1.72663">
        <ele>2176</ele>
        <time>2020-06-27T14:48:00+02:00</time>
      </trkpt>
      <trkpt lat="42.62722" lon="1.72674">
        <ele>2176</ele>
        <time>2020-06-27T14:48:00+02:00</time>
      </trkpt>
      <trkpt lat="42.62742" lon="1.72692">
        <ele>2177</ele>
        <time>2020-06-27T14:50:08+02:00</time>
      </trkpt>
      <trkpt lat="42.62765" lon="1.72686">
        <ele>2174</ele>
        <time>2020-06-27T14:50:08+02:00</time>
      </trkpt>
      <trkpt lat="42.62787" lon="1.72695">
        <ele>2170</ele>
        <time>2020-06-27T14:50:08+02:00</time>
      </trkpt>
      <trkpt lat="42.62809" lon="1.72686">
        <ele>2166</ele>
        <time>2020-06-27T14:50:08+02:00</time>
      </trkpt>
      <trkpt lat="42.62823" lon="1.72662">
        <ele>2159</ele>
        <time>2020-06-27T14:50:08+02:00</time>
      </trkpt>
      <trkpt lat="42.6283" lon="1.72633">
        <ele>2158</ele>
        <time>2020-06-27T14:52:16+02:00</time>
      </trkpt>
      <trkpt lat="42.62838" lon="1.72605">
        <ele>2154</ele>
        <time>2020-06-27T14:52:16+02:00</time>
      </trkpt>
      <trkpt lat="42.62861" lon="1.72607">
        <ele>2154</ele>
        <time>2020-06-27T14:54:24+02:00</time>
      </trkpt>
      <trkpt lat="42.62884" lon="1.72605">
        <ele>2161</ele>
        <time>2020-06-27T14:54:24+02:00</time>
      </trkpt>
      <trkpt lat="42.62903" lon="1.72589">
        <ele>2155</ele>
        <time>2020-06-27T14:54:24+02:00</time>
      </trkpt>
      <trkpt lat="42.62925" lon="1.72583">
        <ele>2152</ele>
        <time>2020-06-27T14:56:32+02:00</time>
      </trkpt>
      <trkpt lat="42.62948" lon="1.72579">
        <ele>2146</ele>
        <time>2020-06-27T14:56:32+02:00</time>
      </trkpt>
      <trkpt lat="42.6297" lon="1.72588">
        <ele>2151</ele>
        <time>2020-06-27T14:56:32+02:00</time>
      </trkpt>
      <trkpt lat="42.62987" lon="1.72567">
        <ele>2145</ele>
        <time>2020-06-27T14:58:40+02:00</time>
      </trkpt>
      <trkpt lat="42.62988" lon="1.72535">
        <ele>2155</ele>
        <time>2020-06-27T14:58:40+02:00</time>
      </trkpt>
      <trkpt lat="42.62978" lon="1.72507">
        <ele>2157</ele>
        <time>2020-06-27T14:58:40+02:00</time>
      </trkpt>
      <trkpt lat="42.62964" lon="1.72482">
        <ele>2160</ele>
        <time>2020-06-27T14:58:40+02:00</time>
      </trkpt>
      <trkpt lat="42.6295" lon="1.72457">
        <ele>2158</ele>
        <time>2020-06-27T14:58:40+02:00</time>
      </trkpt>
      <trkpt lat="42.62962" lon="1.72431">
        <ele>2161</ele>
        <time>2020-06-27T15:00:48+02:00</time>
      </trkpt>
      <trkpt lat="42.62967" lon="1.72401">
        <ele>2166</ele>
        <time>2020-06-27T15:00:48+02:00</time>
      </trkpt>
      <trkpt lat="42.62959" lon="1.72371">
        <ele>2154</ele>
        <time>2020-06-27T15:02:56+02:00</time>
      </trkpt>
      <trkpt lat="42.62961" lon="1.7234">
        <ele>2157</ele>
        <time>2020-06-27T15:02:56+02:00</time>
      </trkpt>
      <trkpt lat="42.62979" lon="1.72321">
        <ele>2153</ele>
        <time>2020-06-27T15:02:56+02:00</time>
      </trkpt>
      <trkpt lat="42.62986" lon="1.72291">
        <ele>2153</ele>
        <time>2020-06-27T15:05:04+02:00</time>
      </trkpt>
      <trkpt lat="42.62998" lon="1.72264">
        <ele>2150</ele>
        <time>2020-06-27T15:05:04+02:00</time>
      </trkpt>
      <trkpt lat="42.63006" lon="1.72235">
        <ele>2143</ele>
        <time>2020-06-27T15:07:12+02:00</time>
      </trkpt>
      <trkpt lat="42.63003" lon="1.72204">
        <ele>2146</ele>
        <time>2020-06-27T15:07:12+02:00</time>
      </trkpt>
      <trkpt lat="42.62997" lon="1.72175">
        <ele>2142</ele>
        <time>2020-06-27T15:09:20+02:00</time>
      </trkpt>
      <trkpt lat="42.63003" lon="1.72144">
        <ele>2133</ele>
        <time>2020-06-27T15:09:20+02:00</time>
      </trkpt>
      <trkpt lat="42.63003" lon="1.72113">
        <ele>2134</ele>
        <time>2020-06-27T15:09:20+02:00</time>
      </trkpt>
      <trkpt lat="42.62998" lon="1.72082">
        <ele>2133</ele>
        <time>2020-06-27T15:09:20+02:00</time>
      </trkpt>
      <trkpt lat="42.62984" lon="1.72057">
        <ele>2132</ele>
        <time>2020-06-27T15:11:28+02:00</time>
      </trkpt>
      <trkpt lat="42.6297" lon="1.72033">
        <ele>2141</ele>
        <time>2020-06-27T15:13:36+02:00</time>
      </trkpt>
      <trkpt lat="42.62962" lon="1.72003">
        <ele>2145</ele>
        <time>2020-06-27T15:15:44+02:00</time>
      </trkpt>
      <trkpt lat="42.62976" lon="1.71979">
        <ele>2147</ele>
        <time>2020-06-27T15:15:44+02:00</time>
      </trkpt>
      <trkpt lat="42.62976" lon="1.71948">
        <ele>2162</ele>
        <time>2020-06-27T15:15:44+02:00</time>
      </trkpt>
      <trkpt lat="42.62974" lon="1.71918">
        <ele>2168</ele>
        <time>2020-06-27T15:17:52+02:00</time>
      </trkpt>
      <trkpt lat="42.62971" lon="1.71887">
        <ele>2170</ele>
        <time>2020-06-27T15:17:52+02:00</time>
      </trkpt>
      <trkpt lat="42.62985" lon="1.71862">
        <ele>2170</ele>
        <time>2020-06-27T15:17:52+02:00</time>
      </trkpt>
      <trkpt lat="42.62999" lon="1.71837">
        <ele>2173</ele>
        <time>2020-06-27T15:17:52+02:00</time>
      </trkpt>
      <trkpt lat="42.63006" lon="1.71807">
        <ele>2172</ele>
        <time>2020-06-27T15:17:52+02:00</time>
      </trkpt>
      <trkpt lat="42.63019" lon="1.71781">
        <ele>2167</ele>
        <time>2020-06-27T15:20:00+02:00</time>
      </trkpt>
      <trkpt lat="42.63034" lon="1.71757">
        <ele>2172</ele>
        <time>2020-06-27T15:20:00+02:00</time>
      </trkpt>
      <trkpt lat="42.63042" lon="1.71727">
        <ele>2175</ele>
        <time>2020-06-27T15:20:00+02:00</time>
      </trkpt>
      <trkpt lat="42.63058" lon="1.71706">
        <ele>2182</ele>
        <time>2020-06-27T15:22:08+02:00</time>
      </trkpt>
      <trkpt lat="42.63079" lon="1.71695">
        <ele>2170</ele>
        <time>2020-06-27T15:30:40+02:00</time>
      </trkpt>
      <trkpt lat="42.63099" lon="1.71677">
        <ele>2171</ele>
        <time>2020-06-27T15:30:40+02:00</time>
      </trkpt>
      <trkpt lat="42.63118" lon="1.71658">
        <ele>2172</ele>
        <time>2020-06-27T15:30:40+02:00</time>
      </trkpt>
      <trkpt lat="42.6313" lon="1.71632">
        <ele>2179</ele>
        <time>2020-06-27T15:30:40+02:00</time>
      </trkpt>
      <trkpt lat="42.6314" lon="1.71602">
        <ele>2178</ele>
        <time>2020-06-27T15:34:56+02:00</time>
      </trkpt>
      <trkpt lat="42.63135" lon="1.71571">
        <ele>2178</ele>
        <time>2020-06-27T15:34:56+02:00</time>
      </trkpt>
      <trkpt lat="42.63122" lon="1.71545">
        <ele>2173</ele>
        <time>2020-06-27T15:34:56+02:00</time>
      </trkpt>
      <trkpt lat="42.6311" lon="1.71519">
        <ele>2174</ele>
        <time>2020-06-27T15:34:56+02:00</time>
      </trkpt>
      <trkpt lat="42.63103" lon="1.71489">
        <ele>2171</ele>
        <time>2020-06-27T15:34:56+02:00</time>
      </trkpt>
      <trkpt lat="42.63091" lon="1.71463">
        <ele>2177</ele>
        <time>2020-06-27T15:37:04+02:00</time>
      </trkpt>
      <trkpt lat="42.63075" lon="1.71441">
        <ele>2178</ele>
        <time>2020-06-27T15:37:04+02:00</time>
      </trkpt>
      <trkpt lat="42.63054" lon="1.71428">
        <ele>2182</ele>
        <time>2020-06-27T15:37:04+02:00</time>
      </trkpt>
      <trkpt lat="42.63035" lon="1.7141">
        <ele>2186</ele>
        <time>2020-06-27T15:37:04+02:00</time>
      </trkpt>
      <trkpt lat="42.63023" lon="1.71382">
        <ele>2190</ele>
        <time>2020-06-27T15:37:04+02:00</time>
      </trkpt>
      <trkpt lat="42.63014" lon="1.71354">
        <ele>2188</ele>
        <time>2020-06-27T15:37:04+02:00</time>
      </trkpt>
      <trkpt lat="42.63" lon="1.71329">
        <ele>2190</ele>
        <time>2020-06-27T15:39:12+02:00</time>
      </trkpt>
      <trkpt lat="42.62981" lon="1.71311">
        <ele>2190</ele>
        <time>2020-06-27T15:39:12+02:00</time>
      </trkpt>
      <trkpt lat="42.62965" lon="1.71287">
        <ele>2192</ele>
        <time>2020-06-27T15:39:12+02:00</time>
      </trkpt>
      <trkpt lat="42.62945" lon="1.71271">
        <ele>2193</ele>
        <time>2020-06-27T15:39:12+02:00</time>
      </trkpt>
      <trkpt lat="42.62927" lon="1.71251">
        <ele>2191</ele>
        <time>2020-06-27T15:39:12+02:00</time>
      </trkpt>
      <trkpt lat="42.62912" lon="1.71227">
        <ele>2191</ele>
        <time>2020-06-27T15:41:20+02:00</time>
      </trkpt>
      <trkpt lat="42.62902" lon="1.712">
        <ele>2193</ele>
        <time>2020-06-27T15:41:20+02:00</time>
      </trkpt>
      <trkpt lat="42.62886" lon="1.71178">
        <ele>2191</ele>
        <time>2020-06-27T15:41:20+02:00</time>
      </trkpt>
      <trkpt lat="42.62891" lon="1.71148">
        <ele>2196</ele>
        <time>2020-06-27T15:43:28+02:00</time>
      </trkpt>
      <trkpt lat="42.6291" lon="1.7113">
        <ele>2195</ele>
        <time>2020-06-27T15:43:28+02:00</time>
      </trkpt>
      <trkpt lat="42.62924" lon="1.71107">
        <ele>2194</ele>
        <time>2020-06-27T15:43:28+02:00</time>
      </trkpt>
      <trkpt lat="42.62941" lon="1.71085">
        <ele>2190</ele>
        <time>2020-06-27T15:43:28+02:00</time>
      </trkpt>
      <trkpt lat="42.62962" lon="1.71074">
        <ele>2196</ele>
        <time>2020-06-27T15:45:36+02:00</time>
      </trkpt>
      <trkpt lat="42.62984" lon="1.71065">
        <ele>2200</ele>
        <time>2020-06-27T15:49:52+02:00</time>
      </trkpt>
      <trkpt lat="42.63004" lon="1.7105">
        <ele>2196</ele>
        <time>2020-06-27T15:49:52+02:00</time>
      </trkpt>
      <trkpt lat="42.63026" lon="1.71038">
        <ele>2195</ele>
        <time>2020-06-27T15:49:52+02:00</time>
      </trkpt>
      <trkpt lat="42.63048" lon="1.71031">
        <ele>2196</ele>
        <time>2020-06-27T15:49:52+02:00</time>
      </trkpt>
      <trkpt lat="42.63036" lon="1.71006">
        <ele>2194</ele>
        <time>2020-06-27T15:52:00+02:00</time>
      </trkpt>
      <trkpt lat="42.63021" lon="1.70982">
        <ele>2192</ele>
        <time>2020-06-27T15:52:00+02:00</time>
      </trkpt>
      <trkpt lat="42.63001" lon="1.70966">
        <ele>2194</ele>
        <time>2020-06-27T15:52:00+02:00</time>
      </trkpt>
      <trkpt lat="42.62981" lon="1.70953">
        <ele>2195</ele>
        <time>2020-06-27T15:52:00+02:00</time>
      </trkpt>
      <trkpt lat="42.62961" lon="1.70938">
        <ele>2195</ele>
        <time>2020-06-27T15:52:00+02:00</time>
      </trkpt>
      <trkpt lat="42.62939" lon="1.7093">
        <ele>2195</ele>
        <time>2020-06-27T15:52:00+02:00</time>
      </trkpt>
      <trkpt lat="42.62922" lon="1.70908">
        <ele>2199</ele>
        <time>2020-06-27T15:54:08+02:00</time>
      </trkpt>
      <trkpt lat="42.6291" lon="1.70881">
        <ele>2196</ele>
        <time>2020-06-27T15:54:08+02:00</time>
      </trkpt>
      <trkpt lat="42.62893" lon="1.7086">
        <ele>2194</ele>
        <time>2020-06-27T15:54:08+02:00</time>
      </trkpt>
      <trkpt lat="42.6287" lon="1.70858">
        <ele>2199</ele>
        <time>2020-06-27T15:58:24+02:00</time>
      </trkpt>
      <trkpt lat="42.62849" lon="1.7087">
        <ele>2199</ele>
        <time>2020-06-27T15:58:24+02:00</time>
      </trkpt>
      <trkpt lat="42.62826" lon="1.70871">
        <ele>2197</ele>
        <time>2020-06-27T15:58:24+02:00</time>
      </trkpt>
      <trkpt lat="42.62803" lon="1.70866">
        <ele>2196</ele>
        <time>2020-06-27T16:00:32+02:00</time>
      </trkpt>
      <trkpt lat="42.6278" lon="1.70862">
        <ele>2190</ele>
        <time>2020-06-27T16:00:32+02:00</time>
      </trkpt>
      <trkpt lat="42.62757" lon="1.70869">
        <ele>2194</ele>
        <time>2020-06-27T16:00:32+02:00</time>
      </trkpt>
      <trkpt lat="42.62735" lon="1.70867">
        <ele>2193</ele>
        <time>2020-06-27T16:00:32+02:00</time>
      </trkpt>
      <trkpt lat="42.62713" lon="1.7086">
        <ele>2197</ele>
        <time>2020-06-27T16:02:40+02:00</time>
      </trkpt>
      <trkpt lat="42.62695" lon="1.7084">
        <ele>2195</ele>
        <time>2020-06-27T16:02:40+02:00</time>
      </trkpt>
      <trkpt lat="42.62679" lon="1.70819">
        <ele>2196</ele>
        <time>2020-06-27T16:02:40+02:00</time>
      </trkpt>
      <trkpt lat="42.62672" lon="1.7079">
        <ele>2198</ele>
        <time>2020-06-27T16:02:40+02:00</time>
      </trkpt>
      <trkpt lat="42.62669" lon="1.7076">
        <ele>2196</ele>
        <time>2020-06-27T16:04:48+02:00</time>
      </trkpt>
      <trkpt lat="42.62667" lon="1.70729">
        <ele>2206</ele>
        <time>2020-06-27T16:04:48+02:00</time>
      </trkpt>
      <trkpt lat="42.6269" lon="1.70732">
        <ele>2205</ele>
        <time>2020-06-27T16:04:48+02:00</time>
      </trkpt>
      <trkpt lat="42.62712" lon="1.70737">
        <ele>2205</ele>
        <time>2020-06-27T16:04:48+02:00</time>
      </trkpt>
      <trkpt lat="42.62736" lon="1.70741">
        <ele>2207</ele>
        <time>2020-06-27T16:06:56+02:00</time>
      </trkpt>
      <trkpt lat="42.62758" lon="1.70735">
        <ele>2206</ele>
        <time>2020-06-27T16:06:56+02:00</time>
      </trkpt>
      <trkpt lat="42.62773" lon="1.70712">
        <ele>2200</ele>
        <time>2020-06-27T16:06:56+02:00</time>
      </trkpt>
      <trkpt lat="42.62795" lon="1.70702">
        <ele>2201</ele>
        <time>2020-06-27T16:06:56+02:00</time>
      </trkpt>
      <trkpt lat="42.62808" lon="1.70728">
        <ele>2202</ele>
        <time>2020-06-27T16:09:04+02:00</time>
      </trkpt>
      <trkpt lat="42.62828" lon="1.70744">
        <ele>2201</ele>
        <time>2020-06-27T16:11:12+02:00</time>
      </trkpt>
      <trkpt lat="42.62846" lon="1.70764">
        <ele>2194</ele>
        <time>2020-06-27T16:11:12+02:00</time>
      </trkpt>
      <trkpt lat="42.62859" lon="1.7079">
        <ele>2198</ele>
        <time>2020-06-27T16:11:12+02:00</time>
      </trkpt>
      <trkpt lat="42.62878" lon="1.70807">
        <ele>2203</ele>
        <time>2020-06-27T16:11:12+02:00</time>
      </trkpt>
      <trkpt lat="42.62898" lon="1.70792">
        <ele>2203</ele>
        <time>2020-06-27T16:13:20+02:00</time>
      </trkpt>
      <trkpt lat="42.62904" lon="1.70762">
        <ele>2207</ele>
        <time>2020-06-27T16:13:20+02:00</time>
      </trkpt>
      <trkpt lat="42.62899" lon="1.70731">
        <ele>2204</ele>
        <time>2020-06-27T16:13:20+02:00</time>
      </trkpt>
      <trkpt lat="42.62892" lon="1.70702">
        <ele>2201</ele>
        <time>2020-06-27T16:17:36+02:00</time>
      </trkpt>
      <trkpt lat="42.62903" lon="1.70675">
        <ele>2204</ele>
        <time>2020-06-27T16:17:36+02:00</time>
      </trkpt>
      <trkpt lat="42.62913" lon="1.70647">
        <ele>2197</ele>
        <time>2020-06-27T16:17:36+02:00</time>
      </trkpt>
      <trkpt lat="42.62931" lon="1.70629">
        <ele>2199</ele>
        <time>2020-06-27T16:19:44+02:00</time>
      </trkpt>
      <trkpt lat="42.62952" lon="1.70642">
        <ele>2203</ele>
        <time>2020-06-27T16:19:44+02:00</time>
      </trkpt>
      <trkpt lat="42.62971" lon="1.70659">
        <ele>2200</ele>
        <time>2020-06-27T16:19:44+02:00</time>
      </trkpt>
      <trkpt lat="42.62993" lon="1.70652">
        <ele>2196</ele>
        <time>2020-06-27T16:19:44+02:00</time>
      </trkpt>
      <trkpt lat="42.63014" lon="1.70638">
        <ele>2186</ele>
        <time>2020-06-27T16:21:52+02:00</time>
      </trkpt>
      <trkpt lat="42.63035" lon="1.70622">
        <ele>2186</ele>
        <time>2020-06-27T16:21:52+02:00</time>
      </trkpt>
      <trkpt lat="42.63052" lon="1.70601">
        <ele>2187</ele>
        <time>2020-06-27T16:21:52+02:00</time>
      </trkpt>
      <trkpt lat="42.63075" lon="1.70597">
        <ele>2189</ele>
        <time>2020-06-27T16:21:52+02:00</time>
      </trkpt>
      <trkpt lat="42.63094" lon="1.70615">
        <ele>2188</ele>
        <time>2020-06-27T16:21:52+02:00</time>
      </trkpt>
      <trkpt lat="42.63115" lon="1.70625">
        <ele>2180</ele>
        <time>2020-06-27T16:26:08+02:00</time>
      </trkpt>
      <trkpt lat="42.63138" lon="1.70621">
        <ele>2178</ele>
        <time>2020-06-27T16:26:08+02:00</time>
      </trkpt>
      <trkpt lat="42.6316" lon="1.70613">
        <ele>2184</ele>
        <time>2020-06-27T16:26:08+02:00</time>
      </trkpt>
      <trkpt lat="42.63178" lon="1.70593">
        <ele>2183</ele>
        <time>2020-06-27T16:28:16+02:00</time>
      </trkpt>
      <trkpt lat="42.632" lon="1.70583">
        <ele>2178</ele>
        <time>2020-06-27T16:30:24+02:00</time>
      </trkpt>
      <trkpt lat="42.63223" lon="1.70582">
        <ele>2182</ele>
        <time>2020-06-27T16:30:24+02:00</time>
      </trkpt>
      <trkpt lat="42.63246" lon="1.70578">
        <ele>2179</ele>
        <time>2020-06-27T16:30:24+02:00</time>
      </trkpt>
      <trkpt lat="42.63259" lon="1.70553">
        <ele>2166</ele>
        <time>2020-06-27T16:32:32+02:00</time>
      </trkpt>
      <trkpt lat="42.63277" lon="1.70535">
        <ele>2160</ele>
        <time>2020-06-27T16:32:32+02:00</time>
      </trkpt>
      <trkpt lat="42.63296" lon="1.70516">
        <ele>2154</ele>
        <time>2020-06-27T16:34:40+02:00</time>
      </trkpt>
      <trkpt lat="42.63296" lon="1.70548">
        <ele>2142</ele>
        <time>2020-06-27T16:34:40+02:00</time>
      </trkpt>
      <trkpt lat="42.63287" lon="1.70576">
        <ele>2141</ele>
        <time>2020-06-27T16:34:40+02:00</time>
      </trkpt>
      <trkpt lat="42.63309" lon="1.70571">
        <ele>2134</ele>
        <time>2020-06-27T16:34:40+02:00</time>
      </trkpt>
      <trkpt lat="42.63312" lon="1.70602">
        <ele>2120</ele>
        <time>2020-06-27T16:36:48+02:00</time>
      </trkpt>
      <trkpt lat="42.63326" lon="1.70626">
        <ele>2113</ele>
        <time>2020-06-27T16:36:48+02:00</time>
      </trkpt>
      <trkpt lat="42.63348" lon="1.70634">
        <ele>2108</ele>
        <time>2020-06-27T16:36:48+02:00</time>
      </trkpt>
      <trkpt lat="42.63367" lon="1.70652">
        <ele>2095</ele>
        <time>2020-06-27T16:38:56+02:00</time>
      </trkpt>
      <trkpt lat="42.63389" lon="1.70663">
        <ele>2083</ele>
        <time>2020-06-27T16:38:56+02:00</time>
      </trkpt>
      <trkpt lat="42.6341" lon="1.70654">
        <ele>2075</ele>
        <time>2020-06-27T16:38:56+02:00</time>
      </trkpt>
      <trkpt lat="42.63432" lon="1.70661">
        <ele>2061</ele>
        <time>2020-06-27T16:47:28+02:00</time>
      </trkpt>
      <trkpt lat="42.63455" lon="1.70663">
        <ele>2058</ele>
        <time>2020-06-27T16:49:36+02:00</time>
      </trkpt>
      <trkpt lat="42.63472" lon="1.70641">
        <ele>2053</ele>
        <time>2020-06-27T16:49:36+02:00</time>
      </trkpt>
      <trkpt lat="42.63487" lon="1.7062">
        <ele>2047</ele>
        <time>2020-06-27T16:49:36+02:00</time>
      </trkpt>
      <trkpt lat="42.63506" lon="1.706">
        <ele>2046</ele>
        <time>2020-06-27T16:51:44+02:00</time>
      </trkpt>
      <trkpt lat="42.63524" lon="1.7058">
        <ele>2035</ele>
        <time>2020-06-27T16:51:44+02:00</time>
      </trkpt>
      <trkpt lat="42.63547" lon="1.70586">
        <ele>2033</ele>
        <time>2020-06-27T16:51:44+02:00</time>
      </trkpt>
      <trkpt lat="42.63569" lon="1.70582">
        <ele>2032</ele>
        <time>2020-06-27T16:51:44+02:00</time>
      </trkpt>
      <trkpt lat="42.6359" lon="1.70569">
        <ele>2032</ele>
        <time>2020-06-27T16:51:44+02:00</time>
      </trkpt>
      <trkpt lat="42.63609" lon="1.70552">
        <ele>2032</ele>
        <time>2020-06-27T16:51:44+02:00</time>
      </trkpt>
      <trkpt lat="42.63619" lon="1.70522">
        <ele>2025</ele>
        <time>2020-06-27T16:53:52+02:00</time>
      </trkpt>
      <trkpt lat="42.63632" lon="1.70496">
        <ele>2022</ele>
        <time>2020-06-27T16:53:52+02:00</time>
      </trkpt>
      <trkpt lat="42.63646" lon="1.7047">
        <ele>2019</ele>
        <time>2020-06-27T16:53:52+02:00</time>
      </trkpt>
      <trkpt lat="42.63666" lon="1.70454">
        <ele>2011</ele>
        <time>2020-06-27T16:53:52+02:00</time>
      </trkpt>
      <trkpt lat="42.63685" lon="1.70436">
        <ele>2008</ele>
        <time>2020-06-27T16:53:52+02:00</time>
      </trkpt>
      <trkpt lat="42.63696" lon="1.70408">
        <ele>2006</ele>
        <time>2020-06-27T16:53:52+02:00</time>
      </trkpt>
      <trkpt lat="42.63711" lon="1.70385">
        <ele>2005</ele>
        <time>2020-06-27T16:56:00+02:00</time>
      </trkpt>
      <trkpt lat="42.63728" lon="1.70363">
        <ele>2000</ele>
        <time>2020-06-27T16:56:00+02:00</time>
      </trkpt>
      <trkpt lat="42.63742" lon="1.70339">
        <ele>2001</ele>
        <time>2020-06-27T16:56:00+02:00</time>
      </trkpt>
      <trkpt lat="42.63756" lon="1.70313">
        <ele>2000</ele>
        <time>2020-06-27T16:56:00+02:00</time>
      </trkpt>
      <trkpt lat="42.63773" lon="1.70291">
        <ele>1986</ele>
        <time>2020-06-27T16:56:00+02:00</time>
      </trkpt>
      <trkpt lat="42.63786" lon="1.70267">
        <ele>1979</ele>
        <time>2020-06-27T16:58:08+02:00</time>
      </trkpt>
      <trkpt lat="42.6379" lon="1.70235">
        <ele>1979</ele>
        <time>2020-06-27T16:58:08+02:00</time>
      </trkpt>
      <trkpt lat="42.63801" lon="1.70206">
        <ele>1981</ele>
        <time>2020-06-27T16:58:08+02:00</time>
      </trkpt>
      <trkpt lat="42.63811" lon="1.70179">
        <ele>1974</ele>
        <time>2020-06-27T16:58:08+02:00</time>
      </trkpt>
      <trkpt lat="42.63823" lon="1.70153">
        <ele>1976</ele>
        <time>2020-06-27T16:58:08+02:00</time>
      </trkpt>
      <trkpt lat="42.63829" lon="1.70123">
        <ele>1976</ele>
        <time>2020-06-27T16:58:08+02:00</time>
      </trkpt>
      <trkpt lat="42.63826" lon="1.70092">
        <ele>1975</ele>
        <time>2020-06-27T17:06:40+02:00</time>
      </trkpt>
      <trkpt lat="42.63826" lon="1.7006">
        <ele>1969</ele>
        <time>2020-06-27T17:08:48+02:00</time>
      </trkpt>
      <trkpt lat="42.63819" lon="1.70031">
        <ele>1971</ele>
        <time>2020-06-27T17:08:48+02:00</time>
      </trkpt>
      <trkpt lat="42.63815" lon="1.69999">
        <ele>1969</ele>
        <time>2020-06-27T17:08:48+02:00</time>
      </trkpt>
      <trkpt lat="42.63788" lon="1.69903">
        <ele>1960</ele>
        <time>2020-06-27T17:08:48+02:00</time>
      </trkpt>
      <trkpt lat="42.63785" lon="1.69872">
        <ele>1969</ele>
        <time>2020-06-27T17:08:48+02:00</time>
      </trkpt>
      <trkpt lat="42.63778" lon="1.69841">
        <ele>1958</ele>
        <time>2020-06-27T17:10:56+02:00</time>
      </trkpt>
      <trkpt lat="42.6377" lon="1.69811">
        <ele>1956</ele>
        <time>2020-06-27T17:10:56+02:00</time>
      </trkpt>
      <trkpt lat="42.63762" lon="1.69781">
        <ele>1950</ele>
        <time>2020-06-27T17:10:56+02:00</time>
      </trkpt>
      <trkpt lat="42.63752" lon="1.69753">
        <ele>1947</ele>
        <time>2020-06-27T17:10:56+02:00</time>
      </trkpt>
      <trkpt lat="42.63746" lon="1.69723">
        <ele>1944</ele>
        <time>2020-06-27T17:10:56+02:00</time>
      </trkpt>
      <trkpt lat="42.63739" lon="1.69693">
        <ele>1939</ele>
        <time>2020-06-27T17:10:56+02:00</time>
      </trkpt>
      <trkpt lat="42.63734" lon="1.69662">
        <ele>1937</ele>
        <time>2020-06-27T17:13:04+02:00</time>
      </trkpt>
      <trkpt lat="42.63732" lon="1.69631">
        <ele>1936</ele>
        <time>2020-06-27T17:13:04+02:00</time>
      </trkpt>
      <trkpt lat="42.6373" lon="1.696">
        <ele>1933</ele>
        <time>2020-06-27T17:13:04+02:00</time>
      </trkpt>
      <trkpt lat="42.63731" lon="1.69568">
        <ele>1926</ele>
        <time>2020-06-27T17:13:04+02:00</time>
      </trkpt>
      <trkpt lat="42.63734" lon="1.69537">
        <ele>1919</ele>
        <time>2020-06-27T17:13:04+02:00</time>
      </trkpt>
      <trkpt lat="42.63732" lon="1.69506">
        <ele>1918</ele>
        <time>2020-06-27T17:13:04+02:00</time>
      </trkpt>
      <trkpt lat="42.63736" lon="1.69475">
        <ele>1921</ele>
        <time>2020-06-27T17:15:12+02:00</time>
      </trkpt>
      <trkpt lat="42.63735" lon="1.69444">
        <ele>1921</ele>
        <time>2020-06-27T17:15:12+02:00</time>
      </trkpt>
      <trkpt lat="42.63745" lon="1.69416">
        <ele>1921</ele>
        <time>2020-06-27T17:15:12+02:00</time>
      </trkpt>
      <trkpt lat="42.63759" lon="1.69391">
        <ele>1915</ele>
        <time>2020-06-27T17:15:12+02:00</time>
      </trkpt>
      <trkpt lat="42.63771" lon="1.69363">
        <ele>1915</ele>
        <time>2020-06-27T17:15:12+02:00</time>
      </trkpt>
      <trkpt lat="42.63768" lon="1.69332">
        <ele>1915</ele>
        <time>2020-06-27T17:15:12+02:00</time>
      </trkpt>
      <trkpt lat="42.6377" lon="1.69301">
        <ele>1915</ele>
        <time>2020-06-27T17:17:20+02:00</time>
      </trkpt>
      <trkpt lat="42.63768" lon="1.6927">
        <ele>1912</ele>
        <time>2020-06-27T17:17:20+02:00</time>
      </trkpt>
      <trkpt lat="42.63784" lon="1.69247">
        <ele>1911</ele>
        <time>2020-06-27T17:17:20+02:00</time>
      </trkpt>
      <trkpt lat="42.63774" lon="1.69219">
        <ele>1913</ele>
        <time>2020-06-27T17:17:20+02:00</time>
      </trkpt>
      <trkpt lat="42.63754" lon="1.69204">
        <ele>1917</ele>
        <time>2020-06-27T17:17:20+02:00</time>
      </trkpt>
      <trkpt lat="42.63742" lon="1.69178">
        <ele>1916</ele>
        <time>2020-06-27T17:17:20+02:00</time>
      </trkpt>
      <trkpt lat="42.6374" lon="1.69147">
        <ele>1914</ele>
        <time>2020-06-27T17:19:28+02:00</time>
      </trkpt>
      <trkpt lat="42.63743" lon="1.69116">
        <ele>1915</ele>
        <time>2020-06-27T17:19:28+02:00</time>
      </trkpt>
      <trkpt lat="42.63764" lon="1.69103">
        <ele>1915</ele>
        <time>2020-06-27T17:21:36+02:00</time>
      </trkpt>
      <trkpt lat="42.63778" lon="1.69128">
        <ele>1918</ele>
        <time>2020-06-27T17:21:36+02:00</time>
      </trkpt>
      <trkpt lat="42.63789" lon="1.69156">
        <ele>1913</ele>
        <time>2020-06-27T17:21:36+02:00</time>
      </trkpt>
      <trkpt lat="42.63807" lon="1.69174">
        <ele>1912</ele>
        <time>2020-06-27T17:23:44+02:00</time>
      </trkpt>
      <trkpt lat="42.6383" lon="1.69179">
        <ele>1911</ele>
        <time>2020-06-27T17:23:44+02:00</time>
      </trkpt>
      <trkpt lat="42.63851" lon="1.69191">
        <ele>1909</ele>
        <time>2020-06-27T17:23:44+02:00</time>
      </trkpt>
      <trkpt lat="42.63865" lon="1.69216">
        <ele>1909</ele>
        <time>2020-06-27T17:23:44+02:00</time>
      </trkpt>
      <trkpt lat="42.6386" lon="1.69246">
        <ele>1900</ele>
        <time>2020-06-27T17:25:52+02:00</time>
      </trkpt>
      <trkpt lat="42.63878" lon="1.69265">
        <ele>1899</ele>
        <time>2020-06-27T17:32:16+02:00</time>
      </trkpt>
      <trkpt lat="42.63892" lon="1.69289">
        <ele>1900</ele>
        <time>2020-06-27T17:32:16+02:00</time>
      </trkpt>
      <trkpt lat="42.63906" lon="1.69315">
        <ele>1900</ele>
        <time>2020-06-27T17:34:24+02:00</time>
      </trkpt>
      <trkpt lat="42.63919" lon="1.69342">
        <ele>1900</ele>
        <time>2020-06-27T17:34:24+02:00</time>
      </trkpt>
      <trkpt lat="42.63929" lon="1.69369">
        <ele>1897</ele>
        <time>2020-06-27T17:34:24+02:00</time>
      </trkpt>
      <trkpt lat="42.63939" lon="1.69399">
        <ele>1900</ele>
        <time>2020-06-27T17:34:24+02:00</time>
      </trkpt>
      <trkpt lat="42.63942" lon="1.69429">
        <ele>1893</ele>
        <time>2020-06-27T17:34:24+02:00</time>
      </trkpt>
      <trkpt lat="42.63952" lon="1.69456">
        <ele>1892</ele>
        <time>2020-06-27T17:34:24+02:00</time>
      </trkpt>
      <trkpt lat="42.63966" lon="1.69482">
        <ele>1889</ele>
        <time>2020-06-27T17:36:32+02:00</time>
      </trkpt>
      <trkpt lat="42.63985" lon="1.695">
        <ele>1885</ele>
        <time>2020-06-27T17:36:32+02:00</time>
      </trkpt>
      <trkpt lat="42.63999" lon="1.69525">
        <ele>1878</ele>
        <time>2020-06-27T17:36:32+02:00</time>
      </trkpt>
      <trkpt lat="42.64005" lon="1.69555">
        <ele>1872</ele>
        <time>2020-06-27T17:36:32+02:00</time>
      </trkpt>
      <trkpt lat="42.64016" lon="1.69582">
        <ele>1876</ele>
        <time>2020-06-27T17:38:40+02:00</time>
      </trkpt>
      <trkpt lat="42.64028" lon="1.69609">
        <ele>1877</ele>
        <time>2020-06-27T17:38:40+02:00</time>
      </trkpt>
      <trkpt lat="42.6404" lon="1.69636">
        <ele>1873</ele>
        <time>2020-06-27T17:38:40+02:00</time>
      </trkpt>
      <trkpt lat="42.64052" lon="1.69663">
        <ele>1858</ele>
        <time>2020-06-27T17:38:40+02:00</time>
      </trkpt>
      <trkpt lat="42.64061" lon="1.69693">
        <ele>1850</ele>
        <time>2020-06-27T17:38:40+02:00</time>
      </trkpt>
      <trkpt lat="42.64071" lon="1.6972">
        <ele>1852</ele>
        <time>2020-06-27T17:38:40+02:00</time>
      </trkpt>
      <trkpt lat="42.64084" lon="1.69746">
        <ele>1852</ele>
        <time>2020-06-27T17:40:48+02:00</time>
      </trkpt>
      <trkpt lat="42.64096" lon="1.69774">
        <ele>1846</ele>
        <time>2020-06-27T17:40:48+02:00</time>
      </trkpt>
      <trkpt lat="42.64113" lon="1.69794">
        <ele>1839</ele>
        <time>2020-06-27T17:40:48+02:00</time>
      </trkpt>
      <trkpt lat="42.64129" lon="1.69816">
        <ele>1831</ele>
        <time>2020-06-27T17:40:48+02:00</time>
      </trkpt>
      <trkpt lat="42.6415" lon="1.69828">
        <ele>1821</ele>
        <time>2020-06-27T17:40:48+02:00</time>
      </trkpt>
      <trkpt lat="42.64171" lon="1.69843">
        <ele>1813</ele>
        <time>2020-06-27T17:42:56+02:00</time>
      </trkpt>
      <trkpt lat="42.64188" lon="1.69862">
        <ele>1808</ele>
        <time>2020-06-27T17:42:56+02:00</time>
      </trkpt>
      <trkpt lat="42.64206" lon="1.69883">
        <ele>1804</ele>
        <time>2020-06-27T17:42:56+02:00</time>
      </trkpt>
      <trkpt lat="42.64227" lon="1.69897">
        <ele>1802</ele>
        <time>2020-06-27T17:42:56+02:00</time>
      </trkpt>
      <trkpt lat="42.64246" lon="1.69916">
        <ele>1802</ele>
        <time>2020-06-27T17:42:56+02:00</time>
      </trkpt>
      <trkpt lat="42.64267" lon="1.6993">
        <ele>1800</ele>
        <time>2020-06-27T17:42:56+02:00</time>
      </trkpt>
      <trkpt lat="42.6429" lon="1.69938">
        <ele>1792</ele>
        <time>2020-06-27T17:45:04+02:00</time>
      </trkpt>
      <trkpt lat="42.6431" lon="1.69952">
        <ele>1790</ele>
        <time>2020-06-27T17:45:04+02:00</time>
      </trkpt>
      <trkpt lat="42.64332" lon="1.69966">
        <ele>1791</ele>
        <time>2020-06-27T17:45:04+02:00</time>
      </trkpt>
      <trkpt lat="42.64354" lon="1.69979">
        <ele>1790</ele>
        <time>2020-06-27T17:45:04+02:00</time>
      </trkpt>
      <trkpt lat="42.64377" lon="1.69979">
        <ele>1784</ele>
        <time>2020-06-27T17:45:04+02:00</time>
      </trkpt>
      <trkpt lat="42.64397" lon="1.69992">
        <ele>1785</ele>
        <time>2020-06-27T17:45:04+02:00</time>
      </trkpt>
      <trkpt lat="42.64418" lon="1.70004">
        <ele>1774</ele>
        <time>2020-06-27T17:45:04+02:00</time>
      </trkpt>
      <trkpt lat="42.64437" lon="1.70023">
        <ele>1770</ele>
        <time>2020-06-27T17:47:12+02:00</time>
      </trkpt>
      <trkpt lat="42.6446" lon="1.70033">
        <ele>1767</ele>
        <time>2020-06-27T17:47:12+02:00</time>
      </trkpt>
      <trkpt lat="42.64483" lon="1.70039">
        <ele>1767</ele>
        <time>2020-06-27T17:47:12+02:00</time>
      </trkpt>
      <trkpt lat="42.64505" lon="1.70038">
        <ele>1764</ele>
        <time>2020-06-27T17:47:12+02:00</time>
      </trkpt>
      <trkpt lat="42.64526" lon="1.70054">
        <ele>1775</ele>
        <time>2020-06-27T17:47:12+02:00</time>
      </trkpt>
      <trkpt lat="42.64548" lon="1.7006">
        <ele>1770</ele>
        <time>2020-06-27T17:47:12+02:00</time>
      </trkpt>
      <trkpt lat="42.64571" lon="1.70059">
        <ele>1768</ele>
        <time>2020-06-27T17:49:20+02:00</time>
      </trkpt>
      <trkpt lat="42.64594" lon="1.70057">
        <ele>1762</ele>
        <time>2020-06-27T17:49:20+02:00</time>
      </trkpt>
      <trkpt lat="42.64617" lon="1.70055">
        <ele>1756</ele>
        <time>2020-06-27T17:49:20+02:00</time>
      </trkpt>
      <trkpt lat="42.6464" lon="1.70049">
        <ele>1758</ele>
        <time>2020-06-27T17:49:20+02:00</time>
      </trkpt>
      <trkpt lat="42.64661" lon="1.70059">
        <ele>1760</ele>
        <time>2020-06-27T17:49:20+02:00</time>
      </trkpt>
      <trkpt lat="42.64684" lon="1.70058">
        <ele>1759</ele>
        <time>2020-06-27T17:51:28+02:00</time>
      </trkpt>
      <trkpt lat="42.64705" lon="1.70047">
        <ele>1757</ele>
        <time>2020-06-27T17:51:28+02:00</time>
      </trkpt>
      <trkpt lat="42.64727" lon="1.70055">
        <ele>1757</ele>
        <time>2020-06-27T17:51:28+02:00</time>
      </trkpt>
      <trkpt lat="42.6475" lon="1.70068">
        <ele>1758</ele>
        <time>2020-06-27T17:51:28+02:00</time>
      </trkpt>
      <trkpt lat="42.64772" lon="1.70063">
        <ele>1754</ele>
        <time>2020-06-27T17:51:28+02:00</time>
      </trkpt>
      <trkpt lat="42.64795" lon="1.70066">
        <ele>1753</ele>
        <time>2020-06-27T17:51:28+02:00</time>
      </trkpt>
      <trkpt lat="42.64817" lon="1.7007">
        <ele>1753</ele>
        <time>2020-06-27T17:51:28+02:00</time>
      </trkpt>
      <trkpt lat="42.64837" lon="1.70087">
        <ele>1753</ele>
        <time>2020-06-27T17:53:36+02:00</time>
      </trkpt>
      <trkpt lat="42.64852" lon="1.70111">
        <ele>1749</ele>
        <time>2020-06-27T17:53:36+02:00</time>
      </trkpt>
      <trkpt lat="42.64859" lon="1.70141">
        <ele>1750</ele>
        <time>2020-06-27T17:53:36+02:00</time>
      </trkpt>
      <trkpt lat="42.6487" lon="1.70169">
        <ele>1746</ele>
        <time>2020-06-27T17:53:36+02:00</time>
      </trkpt>
      <trkpt lat="42.64881" lon="1.70196">
        <ele>1749</ele>
        <time>2020-06-27T17:53:36+02:00</time>
      </trkpt>
      <trkpt lat="42.64896" lon="1.70221">
        <ele>1749</ele>
        <time>2020-06-27T17:53:36+02:00</time>
      </trkpt>
      <trkpt lat="42.6491" lon="1.70246">
        <ele>1753</ele>
        <time>2020-06-27T17:53:36+02:00</time>
      </trkpt>
      <trkpt lat="42.64927" lon="1.70266">
        <ele>1752</ele>
        <time>2020-06-27T17:55:44+02:00</time>
      </trkpt>
      <trkpt lat="42.64945" lon="1.70287">
        <ele>1752</ele>
        <time>2020-06-27T17:55:44+02:00</time>
      </trkpt>
      <trkpt lat="42.64957" lon="1.70313">
        <ele>1752</ele>
        <time>2020-06-27T17:55:44+02:00</time>
      </trkpt>
      <trkpt lat="42.64975" lon="1.70332">
        <ele>1756</ele>
        <time>2020-06-27T17:55:44+02:00</time>
      </trkpt>
      <trkpt lat="42.64997" lon="1.70344">
        <ele>1756</ele>
        <time>2020-06-27T17:55:44+02:00</time>
      </trkpt>
      <trkpt lat="42.65019" lon="1.70352">
        <ele>1752</ele>
        <time>2020-06-27T17:57:52+02:00</time>
      </trkpt>
      <trkpt lat="42.65042" lon="1.70356">
        <ele>1750</ele>
        <time>2020-06-27T17:57:52+02:00</time>
      </trkpt>
      <trkpt lat="42.65065" lon="1.70351">
        <ele>1746</ele>
        <time>2020-06-27T17:57:52+02:00</time>
      </trkpt>
    </trkseg>
  </trk>
</gpx>